createdAt,value
2023-06-26T00:03:39.881Z,5.40
2023-06-26T00:08:41.583Z,5.43
2023-06-26T00:13:43.199Z,4.78
2023-06-26T00:18:44.772Z,5.20
2023-06-26T00:23:46.840Z,5.20
2023-06-26T00:28:48.383Z,5.15
2023-06-26T00:33:49.961Z,4.70
2023-06-26T00:38:51.625Z,4.95
2023-06-26T00:43:53.196Z,5.28
2023-06-26T00:48:56.222Z,5.43
2023-06-26T00:53:58.792Z,5.25
2023-06-26T00:59:00.392Z,5.35
2023-06-26T01:04:02.223Z,5.30
2023-06-26T01:09:04.297Z,4.20
2023-06-26T01:14:05.887Z,4.38
2023-06-26T01:19:12.161Z,3.85
2023-06-26T01:24:21.591Z,4.32
2023-06-26T01:29:25.024Z,4.15
2023-06-26T01:34:27.910Z,3.80
2023-06-26T01:39:29.583Z,4.03
2023-06-26T01:44:36.358Z,4.90
2023-06-26T01:55:10.158Z,4.70
2023-06-26T02:00:14.046Z,5.68
2023-06-26T02:05:15.885Z,4.53
2023-06-26T02:10:17.435Z,4.82
2023-06-26T02:15:18.990Z,5.40
2023-06-26T02:20:20.568Z,5.75
2023-06-26T02:25:22.300Z,5.82
2023-06-26T02:30:23.832Z,6.07
2023-06-26T02:35:25.375Z,5.82
2023-06-26T02:40:26.911Z,6.05
2023-06-26T02:45:28.467Z,6.30
2023-06-26T02:50:30.079Z,6.57
2023-06-26T02:55:31.608Z,7.30
2023-06-26T03:00:33.209Z,6.88
2023-06-26T03:05:34.819Z,6.97
2023-06-26T03:10:36.518Z,7.13
2023-06-26T03:15:38.350Z,6.45
2023-06-26T03:20:40.187Z,5.80
2023-06-26T03:25:42.015Z,6.53
2023-06-26T03:30:43.985Z,6.80
2023-06-26T03:35:45.601Z,6.97
2023-06-26T03:40:47.159Z,5.88
2023-06-26T03:45:48.726Z,5.88
2023-06-26T03:50:50.660Z,5.40
2023-06-26T03:55:52.213Z,5.88
2023-06-26T04:00:54.326Z,4.97
2023-06-26T04:05:55.879Z,5.47
2023-06-26T04:10:58.891Z,4.68
2023-06-26T04:16:00.510Z,4.55
2023-06-26T04:21:09.038Z,3.70
2023-06-26T04:26:14.367Z,3.15
2023-06-26T04:31:16.037Z,3.33
2023-06-26T04:36:18.959Z,3.10
2023-06-26T04:41:20.480Z,3.13
2023-06-26T04:46:22.067Z,3.22
2023-06-26T04:51:23.621Z,2.85
2023-06-26T04:56:27.196Z,3.33
2023-06-26T05:01:30.759Z,3.42
2023-06-26T05:06:32.510Z,3.00
2023-06-26T05:11:34.257Z,3.28
2023-06-26T05:16:36.427Z,2.70
2023-06-26T05:21:38.290Z,2.83
2023-06-26T05:26:40.122Z,3.05
2023-06-26T05:31:44.470Z,2.92
2023-06-26T05:36:48.417Z,2.88
2023-06-26T05:41:50.308Z,3.28
2023-06-26T05:46:52.108Z,3.58
2023-06-26T05:51:53.955Z,2.70
2023-06-26T05:57:02.116Z,2.70
2023-06-26T06:02:04.125Z,2.65
2023-06-26T06:07:06.275Z,2.20
2023-06-26T06:12:08.817Z,2.20
2023-06-26T06:17:10.347Z,2.15
2023-06-26T06:22:11.915Z,1.98
2023-06-26T06:27:14.262Z,2.53
2023-06-26T06:32:15.958Z,2.85
2023-06-26T06:37:17.612Z,2.90
2023-06-26T06:42:19.170Z,2.10
2023-06-26T06:47:20.841Z,2.45
2023-06-26T06:52:22.483Z,2.38
2023-06-26T06:57:24.097Z,2.65
2023-06-26T07:02:25.711Z,2.25
2023-06-26T07:07:31.862Z,2.60
2023-06-26T07:12:34.570Z,2.20
2023-06-26T07:17:36.549Z,2.45
2023-06-26T07:22:38.442Z,2.38
2023-06-26T07:27:41.035Z,2.00
2023-06-26T07:32:45.957Z,2.00
2023-06-26T07:37:47.708Z,3.03
2023-06-26T07:42:49.441Z,2.65
2023-06-26T07:47:50.991Z,2.95
2023-06-26T07:52:54.261Z,3.22
2023-06-26T07:57:56.385Z,2.55
2023-06-26T08:02:58.083Z,2.95
2023-06-26T08:07:59.783Z,2.83
2023-06-26T08:13:01.571Z,3.13
2023-06-26T08:18:03.248Z,3.20
2023-06-26T08:23:05.235Z,2.83
2023-06-26T08:28:06.826Z,2.30
2023-06-26T08:33:13.238Z,2.20
2023-06-26T08:38:14.824Z,2.58
2023-06-26T08:43:23.168Z,2.53
2023-06-26T08:48:25.515Z,2.20
2023-06-26T08:53:48.139Z,2.67
2023-06-26T08:58:50.604Z,2.58
2023-06-26T09:03:53.067Z,2.30
2023-06-26T09:08:54.659Z,2.75
2023-06-26T09:13:56.643Z,2.45
2023-06-26T09:18:58.170Z,2.78
2023-06-26T09:23:59.754Z,2.92
2023-06-26T09:29:01.385Z,2.38
2023-06-26T09:34:04.270Z,1.55
2023-06-26T09:39:11.732Z,2.17
2023-06-26T09:44:15.365Z,1.77
2023-06-26T09:49:17.020Z,1.65
2023-06-26T09:54:19.706Z,1.40
2023-06-26T09:59:21.515Z,1.83
2023-06-26T10:04:23.192Z,2.15
2023-06-26T10:09:28.311Z,1.83
2023-06-26T10:14:36.626Z,1.38
2023-06-26T10:19:44.739Z,2.20
2023-06-26T10:24:48.479Z,2.25
2023-06-26T10:29:59.334Z,1.60
2023-06-26T10:35:04.160Z,1.55
2023-06-26T10:40:06.414Z,1.40
2023-06-26T10:45:18.715Z,1.58
2023-06-26T10:50:24.504Z,1.55
2023-06-26T10:55:29.736Z,1.30
2023-06-26T11:00:31.497Z,1.33
2023-06-26T11:05:34.460Z,1.63
2023-06-26T11:10:53.634Z,1.42
2023-06-26T11:15:57.929Z,1.58
2023-06-26T11:21:10.012Z,1.30
2023-06-26T11:26:24.397Z,1.35
2023-06-26T11:31:33.232Z,1.40
2023-06-26T11:36:37.919Z,1.05
2023-06-26T11:41:41.366Z,1.80
2023-06-26T11:46:44.228Z,1.40
2023-06-26T11:51:47.772Z,1.23
2023-06-26T11:57:00.326Z,1.98
2023-06-26T12:02:05.901Z,1.63
2023-06-26T12:07:10.172Z,1.90
2023-06-26T12:12:15.371Z,1.60
2023-06-26T12:17:17.122Z,1.50
2023-06-26T12:22:19.503Z,1.52
2023-06-26T12:27:21.069Z,1.50
2023-06-26T12:32:29.626Z,1.77
2023-06-26T12:37:37.930Z,1.60
2023-06-26T12:42:39.516Z,1.73
2023-06-26T12:47:42.403Z,1.38
2023-06-26T12:52:44.070Z,1.73
2023-06-26T12:57:45.687Z,1.10
2023-06-26T13:02:47.367Z,1.60
2023-06-26T13:07:48.998Z,1.50
2023-06-26T13:12:50.558Z,1.38
2023-06-26T13:17:52.169Z,1.17
2023-06-26T13:22:54.641Z,1.10
2023-06-26T13:27:56.266Z,1.65
2023-06-26T13:32:57.845Z,0.98
2023-06-26T13:37:59.402Z,1.08
2023-06-26T13:43:00.995Z,1.10
2023-06-26T13:48:03.083Z,1.33
2023-06-26T13:53:04.664Z,1.23
2023-06-26T13:58:06.631Z,1.52
2023-06-26T14:03:08.823Z,1.10
2023-06-26T14:08:11.849Z,1.30
2023-06-26T14:13:16.280Z,1.20
2023-06-26T14:18:18.821Z,1.05
2023-06-26T14:23:20.441Z,1.42
2023-06-26T14:28:23.160Z,1.75
2023-06-26T14:33:24.752Z,1.60
2023-06-26T14:38:26.396Z,1.27
2023-06-26T14:43:27.989Z,1.08
2023-06-26T14:48:31.005Z,1.20
2023-06-26T14:53:32.722Z,1.20
2023-06-26T14:58:34.256Z,1.77
2023-06-26T15:03:35.987Z,1.40
2023-06-26T15:08:37.723Z,1.30
2023-06-26T15:13:39.312Z,1.33
2023-06-26T15:18:42.245Z,1.38
2023-06-26T15:23:43.790Z,1.20
2023-06-26T15:28:45.336Z,1.08
2023-06-26T15:33:46.988Z,1.48
2023-06-26T15:38:48.591Z,1.13
2023-06-26T15:43:51.061Z,1.60
2023-06-26T15:48:52.624Z,0.80
2023-06-26T15:53:54.152Z,1.80
2023-06-26T15:58:56.276Z,1.08
2023-06-26T16:03:57.912Z,1.30
2023-06-26T16:08:59.536Z,1.05
2023-06-26T16:14:01.167Z,1.20
2023-06-26T16:19:04.293Z,1.55
2023-06-26T16:24:06.274Z,1.05
2023-06-26T16:29:07.917Z,1.20
2023-06-26T16:34:09.875Z,1.20
2023-06-26T16:39:17.106Z,1.20
2023-06-26T16:44:18.676Z,1.05
2023-06-26T16:49:20.261Z,0.80
2023-06-26T16:54:21.844Z,1.55
2023-06-26T16:59:23.483Z,1.13
2023-06-26T17:04:25.006Z,1.33
2023-06-26T17:09:26.810Z,1.30
2023-06-26T17:14:28.549Z,1.25
2023-06-26T17:19:30.239Z,1.10
2023-06-26T17:24:32.404Z,1.10
2023-06-26T17:29:34.018Z,1.60
2023-06-26T17:34:36.658Z,1.48
2023-06-26T17:39:38.342Z,1.00
2023-06-26T17:44:39.990Z,1.17
2023-06-26T17:49:41.656Z,1.50
2023-06-26T17:54:43.176Z,1.13
2023-06-26T17:59:44.828Z,1.50
2023-06-26T18:04:46.512Z,1.10
2023-06-26T18:09:48.215Z,1.17
2023-06-26T18:14:49.992Z,1.25
2023-06-26T18:19:51.525Z,1.40
2023-06-26T18:24:53.092Z,1.48
2023-06-26T18:29:54.688Z,1.52
2023-06-26T18:34:56.299Z,1.73
2023-06-26T18:39:58.460Z,1.23
2023-06-26T18:45:00.017Z,1.90
2023-06-26T18:50:02.066Z,1.33
2023-06-26T18:55:03.898Z,1.42
2023-06-26T19:00:07.085Z,2.10
2023-06-26T19:05:09.137Z,1.15
2023-06-26T19:10:11.975Z,1.10
2023-06-26T19:15:13.860Z,1.10
2023-06-26T19:20:15.626Z,1.23
2023-06-26T19:25:17.308Z,1.50
2023-06-26T19:30:18.886Z,1.40
2023-06-26T19:35:22.435Z,1.25
2023-06-26T19:40:26.253Z,1.25
2023-06-26T19:45:27.952Z,1.40
2023-06-26T19:50:29.702Z,1.33
2023-06-26T19:55:31.347Z,1.70
2023-06-26T20:00:33.335Z,1.98
2023-06-26T20:05:34.963Z,1.15
2023-06-26T20:10:36.512Z,1.30
2023-06-26T20:15:38.318Z,1.45
2023-06-26T20:20:41.057Z,1.70
2023-06-26T20:25:43.180Z,1.30
2023-06-26T20:30:44.922Z,1.75
2023-06-26T20:35:46.468Z,1.58
2023-06-26T20:40:48.259Z,1.35
2023-06-26T20:45:51.056Z,1.40
2023-06-26T20:50:52.900Z,1.30
2023-06-26T20:55:54.728Z,1.50
2023-06-26T21:00:56.329Z,1.58
2023-06-26T21:05:58.003Z,1.40
2023-06-26T21:10:59.551Z,1.73
2023-06-26T21:16:01.113Z,2.13
2023-06-26T21:21:03.016Z,1.50
2023-06-26T21:26:04.869Z,1.27
2023-06-26T21:31:06.569Z,1.20
2023-06-26T21:36:08.163Z,1.52
2023-06-26T21:41:10.459Z,1.95
2023-06-26T21:46:12.088Z,1.63
2023-06-26T21:51:13.706Z,1.88
2023-06-26T21:56:15.431Z,1.58
2023-06-26T22:01:17.093Z,1.70
2023-06-26T22:06:18.727Z,2.08
2023-06-26T22:11:20.291Z,1.80
2023-06-26T22:16:21.880Z,1.70
2023-06-26T22:21:24.463Z,1.63
2023-06-26T22:26:26.182Z,1.63
2023-06-26T22:31:27.820Z,1.75
2023-06-26T22:36:29.425Z,2.35
2023-06-26T22:41:31.018Z,1.98
2023-06-26T22:46:32.643Z,1.90
2023-06-26T22:51:34.230Z,2.28
2023-06-26T22:56:49.926Z,3.35
2023-06-26T23:01:56.901Z,2.33
2023-06-26T23:07:00.840Z,2.30
2023-06-26T23:12:02.561Z,2.00
2023-06-26T23:17:07.311Z,2.20
2023-06-26T23:22:11.684Z,2.35
2023-06-26T23:27:14.013Z,2.58
2023-06-26T23:32:16.382Z,3.70
2023-06-26T23:37:26.302Z,3.22
2023-06-26T23:42:28.026Z,3.30
2023-06-26T23:47:29.640Z,3.90
2023-06-26T23:52:31.253Z,3.80
2023-06-26T23:57:33.160Z,4.60
